Flight Briefing for CPX807

Departure Arrival
Thule Air Base (BGTL)
Click to view FAA NOTAMS
Joint Base McGuire Dix Lakehurst (KWRI)
Click to view FAA NOTAMS
Departure Time Arrival Time
N/A N/A
Aircraft Distance
B757-200SF 2201nm
Departure METAR Arrival METAR
BGTL 192156Z AUTO 10010KT 9999 CLR M29/M34 A2941 RMK AO2 SLP953 T12931338 TSNO $ KWRI 192156Z AUTO 30007KT 10SM CLR 01/M13 A3052 RMK AO2 SLP336 T00121126
Suggested Route





View recent IFR Routes data
Notes
USTRANSCOM CONTRACT FLIGHT

Charts and Procedures

Charts for BGTL
No chart available
Charts for KWRI
No chart available

Ventusky Weather




{"cat":null,"equip":null,"transponder":null,"pbn":"PBN\/","maxpax":null,"oew":"0.0","mzfw":"0.0","mtow":"0.0","mlw":"0.0","maxfuel":"0.0"} DEVELOPMENTAL TEST USE ONLY